Aviation WX

[Source: ADDS]
METAR
TVSA 272300Z 00000KT 9999 SCT020 26/21 Q1014 NOSIG =
TVSA 272300Z 2800/2824 11008KT 9999 SCT022
TAF
TVSA 272300Z 2800/2824 11008KT 9999 SCT022 =
SR / SS: 10:31 / 22:02 UTC (Sunrise Sunset 2020-01-27)